createdAt,value
2023-03-04T00:00:02.298Z,0
2023-03-04T00:15:02.768Z,0
2023-03-04T00:30:02.241Z,0
2023-03-04T00:45:02.630Z,0
2023-03-04T01:00:03.282Z,0
2023-03-04T01:15:02.516Z,0
2023-03-04T01:30:02.966Z,0
2023-03-04T01:45:02.389Z,0
2023-03-04T02:00:02.826Z,0
2023-03-04T02:15:02.284Z,0
2023-03-04T02:30:02.697Z,0
2023-03-04T02:45:03.275Z,0
2023-03-04T03:00:02.620Z,0
2023-03-04T03:15:03.287Z,0
2023-03-04T03:30:02.479Z,0
2023-03-04T03:45:02.924Z,0
2023-03-04T04:00:02.359Z,0
2023-03-04T04:15:02.793Z,0
2023-03-04T04:30:02.299Z,0
2023-03-04T04:45:02.666Z,0
2023-03-04T05:00:03.282Z,0
2023-03-04T05:15:02.521Z,0
2023-03-04T05:30:02.990Z,0
2023-03-04T05:45:02.406Z,0
2023-03-04T06:00:02.826Z,0
2023-03-04T06:15:03.324Z,0
2023-03-04T06:30:02.718Z,7
2023-03-04T06:45:03.324Z,3
2023-03-04T07:00:02.604Z,12
2023-03-04T07:15:03.060Z,17
2023-03-04T07:30:02.467Z,19
2023-03-04T07:45:02.904Z,44
2023-03-04T08:00:02.359Z,47
2023-03-04T08:15:02.813Z,47
2023-03-04T08:30:02.334Z,34
2023-03-04T08:45:02.680Z,53
2023-03-04T09:00:03.377Z,46
2023-03-04T09:15:11.041Z,44
2023-03-04T09:45:02.413Z,41
2023-03-04T10:00:02.866Z,123
2023-03-04T10:15:02.386Z,189
2023-03-04T10:30:02.713Z,183
2023-03-04T10:45:03.340Z,129
2023-03-04T11:00:02.557Z,178
2023-03-04T11:15:03.004Z,218
2023-03-04T11:30:02.446Z,282
2023-03-04T11:45:02.875Z,40
2023-03-04T12:00:02.386Z,89
2023-03-04T12:15:02.773Z,243
2023-03-04T12:30:02.378Z,185
2023-03-04T12:45:02.685Z,73
2023-03-04T13:00:03.099Z,87
2023-03-04T13:15:02.513Z,184
2023-03-04T13:30:02.945Z,244
2023-03-04T13:45:02.391Z,203
2023-03-04T14:00:02.833Z,61
2023-03-04T14:15:02.414Z,141
2023-03-04T14:30:02.708Z,127
2023-03-04T14:45:03.314Z,73
2023-03-04T15:00:02.584Z,91
2023-03-04T15:15:03.053Z,17
2023-03-04T15:30:02.492Z,37
2023-03-04T15:45:02.917Z,58
2023-03-04T16:00:02.429Z,34
2023-03-04T16:15:05.004Z,22
2023-03-04T16:30:02.411Z,1
2023-03-04T16:45:02.627Z,2
2023-03-04T17:00:03.138Z,0
2023-03-04T17:15:02.511Z,0
2023-03-04T17:30:02.961Z,0
2023-03-04T17:45:02.425Z,0
2023-03-04T18:00:02.823Z,0
2023-03-04T18:15:03.463Z,0
2023-03-04T18:30:02.717Z,0
2023-03-04T18:45:03.178Z,0
2023-03-04T19:00:02.615Z,0
2023-03-04T19:15:03.030Z,0
2023-03-04T19:30:02.479Z,0
2023-03-04T19:45:02.906Z,0
2023-03-04T20:00:02.570Z,0
2023-03-04T20:15:02.788Z,0
2023-03-04T20:30:04.170Z,0
2023-03-04T20:45:02.650Z,0
2023-03-04T21:00:03.114Z,0
2023-03-04T21:15:02.569Z,0
2023-03-04T21:30:02.973Z,0
2023-03-04T21:45:02.547Z,0
2023-03-04T22:00:04.354Z,0
2023-03-04T22:30:02.769Z,0
2023-03-04T22:45:03.233Z,0
2023-03-04T23:00:02.654Z,0
2023-03-04T23:30:02.543Z,0
2023-03-04T23:45:02.937Z,0
